createdAt,value
2022-11-20T00:00:24.772Z,1.80
2022-11-20T00:01:46.827Z,1.80
2022-11-20T00:03:08.854Z,1.80
2022-11-20T00:04:30.924Z,1.80
2022-11-20T00:05:52.996Z,1.80
2022-11-20T00:07:15.082Z,1.70
2022-11-20T00:08:37.233Z,1.70
2022-11-20T00:09:59.335Z,1.70
2022-11-20T00:11:23.320Z,1.70
2022-11-20T00:12:45.401Z,1.70
2022-11-20T00:14:07.438Z,1.70
2022-11-20T00:15:29.547Z,1.70
2022-11-20T00:16:51.669Z,1.70
2022-11-20T00:18:13.855Z,1.80
2022-11-20T00:19:35.869Z,1.80
2022-11-20T00:21:28.069Z,1.80
2022-11-20T00:22:51.228Z,1.80
2022-11-20T00:24:14.038Z,1.80
2022-11-20T00:25:36.487Z,1.90
2022-11-20T00:26:58.501Z,1.90
2022-11-20T00:28:20.536Z,1.90
2022-11-20T00:29:42.630Z,1.90
2022-11-20T00:31:15.787Z,1.90
2022-11-20T00:32:37.825Z,1.90
2022-11-20T00:33:59.869Z,1.90
2022-11-20T00:35:21.953Z,1.90
2022-11-20T00:36:43.982Z,1.90
2022-11-20T00:38:06.004Z,1.90
2022-11-20T00:39:28.063Z,1.90
2022-11-20T00:40:56.774Z,2.00
2022-11-20T00:42:18.950Z,2.00
2022-11-20T00:43:41.528Z,2.10
2022-11-20T00:45:03.767Z,2.10
2022-11-20T00:46:28.202Z,2.10
2022-11-20T00:47:50.272Z,2.20
2022-11-20T00:49:12.363Z,2.20
2022-11-20T00:50:34.482Z,2.20
2022-11-20T00:51:56.536Z,2.20
2022-11-20T00:53:18.691Z,2.20
2022-11-20T00:54:40.699Z,2.20
2022-11-20T00:56:08.799Z,2.30
2022-11-20T00:57:30.855Z,2.30
2022-11-20T00:58:52.933Z,2.30
2022-11-20T01:00:15.790Z,2.30
2022-11-20T01:01:39.047Z,2.30
2022-11-20T01:03:01.041Z,2.30
2022-11-20T01:04:23.088Z,2.30
2022-11-20T01:05:45.537Z,2.30
2022-11-20T01:07:07.642Z,2.30
2022-11-20T01:08:34.688Z,2.30
2022-11-20T01:09:56.746Z,2.30
2022-11-20T01:11:22.567Z,2.30
2022-11-20T01:12:44.643Z,2.20
2022-11-20T01:14:10.555Z,2.20
2022-11-20T01:15:34.984Z,2.20
2022-11-20T01:16:57.034Z,2.20
2022-11-20T01:18:19.102Z,2.20
2022-11-20T01:19:41.223Z,2.20
2022-11-20T01:21:08.745Z,2.20
2022-11-20T01:22:30.807Z,2.20
2022-11-20T01:23:53.559Z,2.20
2022-11-20T01:25:15.721Z,2.30
2022-11-20T01:26:39.728Z,2.30
2022-11-20T01:28:01.820Z,2.30
2022-11-20T01:29:25.756Z,2.30
2022-11-20T01:30:47.769Z,2.30
2022-11-20T01:32:09.805Z,2.30
2022-11-20T01:33:31.867Z,2.40
2022-11-20T01:34:53.915Z,2.40
2022-11-20T01:36:17.113Z,2.40
2022-11-20T01:37:39.267Z,2.40
2022-11-20T01:39:04.837Z,2.30
2022-11-20T01:40:26.880Z,2.30
2022-11-20T01:42:10.418Z,2.30
2022-11-20T01:43:32.992Z,2.30
2022-11-20T01:44:59.289Z,2.30
2022-11-20T01:46:21.396Z,2.30
2022-11-20T01:47:47.277Z,2.20
2022-11-20T01:49:17.700Z,2.20
2022-11-20T01:50:41.419Z,2.20
2022-11-20T01:52:08.388Z,2.20
2022-11-20T01:53:34.378Z,2.20
2022-11-20T01:55:02.960Z,2.20
2022-11-20T01:56:26.299Z,2.20
2022-11-20T01:57:49.348Z,2.20
2022-11-20T01:59:14.506Z,2.20
2022-11-20T02:00:36.710Z,2.20
2022-11-20T02:01:59.189Z,2.10
2022-11-20T02:03:21.926Z,2.10
2022-11-20T02:04:44.744Z,2.00
2022-11-20T02:06:09.992Z,2.00
2022-11-20T02:07:32.583Z,2.00
2022-11-20T02:08:55.640Z,1.90
2022-11-20T02:10:17.888Z,1.90
2022-11-20T02:11:39.963Z,1.90
2022-11-20T02:13:20.882Z,1.80
2022-11-20T02:14:42.908Z,1.80
2022-11-20T02:16:06.413Z,1.80
2022-11-20T02:17:28.889Z,1.70
2022-11-20T02:18:52.151Z,1.70
2022-11-20T02:20:14.368Z,1.70
2022-11-20T02:21:52.673Z,1.70
2022-11-20T02:23:37.322Z,1.70
2022-11-20T02:25:02.954Z,1.70
2022-11-20T02:26:28.509Z,1.70
2022-11-20T02:27:51.668Z,1.70
2022-11-20T02:29:16.780Z,1.70
2022-11-20T02:30:38.798Z,1.70
2022-11-20T02:32:02.964Z,1.70
2022-11-20T02:33:25.122Z,1.70
2022-11-20T02:34:47.271Z,1.60
2022-11-20T02:36:15.383Z,1.60
2022-11-20T02:37:41.113Z,1.60
2022-11-20T02:39:04.531Z,1.60
2022-11-20T02:40:26.914Z,1.60
2022-11-20T02:41:49.271Z,1.60
2022-11-20T02:43:11.709Z,1.60
2022-11-20T02:44:33.780Z,1.60
2022-11-20T02:45:55.832Z,1.70
2022-11-20T02:47:17.879Z,1.70
2022-11-20T02:48:39.940Z,1.60
2022-11-20T02:50:02.226Z,1.60
2022-11-20T02:51:24.729Z,1.60
2022-11-20T02:52:46.842Z,1.60
2022-11-20T02:54:08.838Z,1.60
2022-11-20T02:55:31.274Z,1.60
2022-11-20T02:56:53.514Z,1.60
2022-11-20T02:58:15.621Z,1.60
2022-11-20T02:59:37.658Z,1.70
2022-11-20T03:00:59.716Z,1.70
2022-11-20T03:02:21.819Z,1.70
2022-11-20T03:03:43.903Z,1.70
2022-11-20T03:05:06.162Z,1.70
2022-11-20T03:06:28.222Z,1.70
2022-11-20T03:07:50.245Z,1.70
2022-11-20T03:09:12.661Z,1.70
2022-11-20T03:10:34.687Z,1.70
2022-11-20T03:11:56.749Z,1.70
2022-11-20T03:13:18.976Z,1.70
2022-11-20T03:14:41.033Z,1.70
2022-11-20T03:16:33.488Z,1.60
2022-11-20T03:17:56.670Z,1.60
2022-11-20T03:19:19.043Z,1.50
2022-11-20T03:20:41.371Z,1.50
2022-11-20T03:22:03.992Z,1.50
2022-11-20T03:23:26.276Z,1.50
2022-11-20T03:24:48.663Z,1.40
2022-11-20T03:26:20.221Z,1.50
2022-11-20T03:27:42.323Z,1.50
2022-11-20T03:29:05.692Z,1.50
2022-11-20T03:30:30.802Z,1.50
2022-11-20T03:31:53.225Z,1.50
2022-11-20T03:33:15.264Z,1.50
2022-11-20T03:34:37.341Z,1.50
2022-11-20T03:36:03.901Z,1.60
2022-11-20T03:37:25.958Z,1.60
2022-11-20T03:38:48.850Z,1.60
2022-11-20T03:40:11.073Z,1.60
2022-11-20T03:41:37.847Z,1.50
2022-11-20T03:42:59.855Z,1.50
2022-11-20T03:44:22.864Z,1.50
2022-11-20T03:45:44.934Z,1.50
2022-11-20T03:47:06.949Z,1.40
2022-11-20T03:48:29.508Z,1.40
2022-11-20T03:49:51.610Z,1.30
2022-11-20T03:51:19.454Z,1.30
2022-11-20T03:52:41.714Z,1.30
2022-11-20T03:54:06.784Z,1.20
2022-11-20T03:55:28.855Z,1.20
2022-11-20T03:56:50.943Z,1.20
2022-11-20T03:58:14.356Z,1.20
2022-11-20T03:59:36.426Z,1.20
2022-11-20T04:00:58.444Z,1.10
2022-11-20T04:02:20.537Z,1.10
2022-11-20T04:03:43.731Z,1.10
2022-11-20T04:05:06.130Z,1.10
2022-11-20T04:06:38.466Z,1.10
2022-11-20T04:08:00.699Z,1.10
2022-11-20T04:09:23.086Z,1.10
2022-11-20T04:10:45.308Z,1.10
2022-11-20T04:12:07.429Z,1.00
2022-11-20T04:13:29.527Z,1.10
2022-11-20T04:14:51.727Z,1.10
2022-11-20T04:16:14.463Z,1.10
2022-11-20T04:17:36.810Z,1.10
2022-11-20T04:19:00.594Z,1.10
2022-11-20T04:20:22.652Z,1.10
2022-11-20T04:21:45.669Z,1.10
2022-11-20T04:23:07.932Z,1.20
2022-11-20T04:24:30.126Z,1.20
2022-11-20T04:25:52.146Z,1.20
2022-11-20T04:27:14.202Z,1.20
2022-11-20T04:28:36.930Z,1.20
2022-11-20T04:29:58.943Z,1.30
2022-11-20T04:31:23.572Z,1.30
2022-11-20T04:32:45.636Z,1.30
2022-11-20T04:34:08.689Z,1.30
2022-11-20T04:35:30.718Z,1.30
2022-11-20T04:36:52.871Z,1.30
2022-11-20T04:38:14.883Z,1.30
2022-11-20T04:39:36.941Z,1.30
2022-11-20T04:41:00.847Z,1.30
2022-11-20T04:42:32.004Z,1.30
2022-11-20T04:44:05.890Z,1.30
2022-11-20T04:45:27.955Z,1.30
2022-11-20T04:46:50.036Z,1.30
2022-11-20T04:48:12.073Z,1.30
2022-11-20T04:49:34.814Z,1.30
2022-11-20T04:50:57.650Z,1.30
2022-11-20T04:52:19.858Z,1.30
2022-11-20T04:53:42.117Z,1.30
2022-11-20T04:55:04.902Z,1.30
2022-11-20T04:56:27.021Z,1.30
2022-11-20T04:57:52.465Z,1.30
2022-11-20T04:59:15.021Z,1.40
2022-11-20T05:00:37.249Z,1.40
2022-11-20T05:01:59.350Z,1.40
2022-11-20T05:03:21.466Z,1.40
2022-11-20T05:04:43.527Z,1.40
2022-11-20T05:06:07.022Z,1.40
2022-11-20T05:07:29.194Z,1.40
2022-11-20T05:08:51.843Z,1.40
2022-11-20T05:10:13.999Z,1.40
2022-11-20T05:11:36.096Z,1.40
2022-11-20T05:12:58.753Z,1.30
2022-11-20T05:14:21.064Z,1.30
2022-11-20T05:15:43.215Z,1.40
2022-11-20T05:17:05.377Z,1.40
2022-11-20T05:18:27.458Z,1.40
2022-11-20T05:19:53.107Z,1.30
2022-11-20T05:21:15.885Z,1.30
2022-11-20T05:22:37.927Z,1.30
2022-11-20T05:23:59.953Z,1.30
2022-11-20T05:25:22.017Z,1.30
2022-11-20T05:26:44.104Z,1.30
2022-11-20T05:28:06.120Z,1.20
2022-11-20T05:29:28.175Z,1.20
2022-11-20T05:30:50.435Z,1.20
2022-11-20T05:32:12.791Z,1.20
2022-11-20T05:33:36.275Z,1.20
2022-11-20T05:34:58.359Z,1.10
2022-11-20T05:36:20.647Z,1.10
2022-11-20T05:37:42.733Z,1.10
2022-11-20T05:39:04.952Z,1.10
2022-11-20T05:40:27.080Z,1.10
2022-11-20T05:42:09.139Z,1.10
2022-11-20T05:43:34.737Z,1.10
2022-11-20T05:45:00.821Z,1.10
2022-11-20T05:46:28.321Z,1.10
2022-11-20T05:47:51.287Z,1.10
2022-11-20T05:49:13.377Z,1.10
2022-11-20T05:50:35.426Z,1.20
2022-11-20T05:51:57.523Z,1.20
2022-11-20T05:53:19.589Z,1.20
2022-11-20T05:54:41.677Z,1.20
2022-11-20T05:56:11.022Z,1.20
2022-11-20T05:57:33.222Z,1.20
2022-11-20T05:58:55.339Z,1.20
2022-11-20T06:00:17.648Z,1.20
2022-11-20T06:01:39.784Z,1.20
2022-11-20T06:03:02.048Z,1.20
2022-11-20T06:04:24.175Z,1.20
2022-11-20T06:05:46.235Z,1.20
2022-11-20T06:07:08.382Z,1.20
2022-11-20T06:08:31.204Z,1.30
2022-11-20T06:09:53.250Z,1.30
2022-11-20T06:11:16.352Z,1.30
2022-11-20T06:12:38.396Z,1.30
2022-11-20T06:14:00.469Z,1.30
2022-11-20T06:15:22.572Z,1.30
2022-11-20T06:16:44.658Z,1.40
2022-11-20T06:18:06.676Z,1.40
2022-11-20T06:19:28.851Z,1.40
2022-11-20T06:20:50.872Z,1.40
2022-11-20T06:22:12.933Z,1.40
2022-11-20T06:23:36.037Z,1.50
2022-11-20T06:24:58.081Z,1.50
2022-11-20T06:26:26.051Z,1.50
2022-11-20T06:27:48.086Z,1.50
2022-11-20T06:29:10.423Z,1.50
2022-11-20T06:30:32.552Z,1.40
2022-11-20T06:31:54.587Z,1.40
2022-11-20T06:33:16.670Z,1.40
2022-11-20T06:34:38.726Z,1.40
2022-11-20T06:36:07.224Z,1.40
2022-11-20T06:37:32.389Z,1.40
2022-11-20T06:38:54.724Z,1.30
2022-11-20T06:40:16.810Z,1.30
2022-11-20T06:41:38.852Z,1.30
2022-11-20T06:43:00.905Z,1.30
2022-11-20T06:44:23.001Z,1.30
2022-11-20T06:45:45.018Z,1.30
2022-11-20T06:47:07.081Z,1.30
2022-11-20T06:48:29.926Z,1.30
2022-11-20T06:49:52.062Z,1.30
2022-11-20T06:51:14.412Z,1.30
2022-11-20T06:52:40.882Z,1.30
2022-11-20T06:54:05.604Z,1.30
2022-11-20T06:55:27.772Z,1.40
2022-11-20T06:56:50.215Z,1.40
2022-11-20T06:58:13.201Z,1.40
2022-11-20T06:59:35.326Z,1.50
2022-11-20T07:01:08.290Z,1.50
2022-11-20T07:02:30.600Z,1.50
2022-11-20T07:03:54.452Z,1.50
2022-11-20T07:05:18.019Z,1.50
2022-11-20T07:06:40.087Z,1.50
2022-11-20T07:08:02.475Z,1.50
2022-11-20T07:09:25.017Z,1.50
2022-11-20T07:10:47.367Z,1.60
2022-11-20T07:12:09.504Z,1.50
2022-11-20T07:13:32.104Z,1.50
2022-11-20T07:14:54.190Z,1.60
2022-11-20T07:16:16.689Z,1.60
2022-11-20T07:17:38.690Z,1.60
2022-11-20T07:19:00.872Z,1.60
2022-11-20T07:20:22.968Z,1.60
2022-11-20T07:21:45.012Z,1.60
2022-11-20T07:23:07.075Z,1.60
2022-11-20T07:24:29.125Z,1.70
2022-11-20T07:25:51.238Z,1.70
2022-11-20T07:27:13.301Z,1.70
2022-11-20T07:28:35.882Z,1.70
2022-11-20T07:29:57.987Z,1.70
2022-11-20T07:31:20.070Z,1.80
2022-11-20T07:32:42.693Z,1.80
2022-11-20T07:34:04.790Z,1.90
2022-11-20T07:35:26.990Z,1.90
2022-11-20T07:36:49.167Z,1.90
2022-11-20T07:38:11.315Z,2.00
2022-11-20T07:39:33.338Z,2.00
2022-11-20T07:40:57.077Z,2.00
2022-11-20T07:42:19.153Z,2.10
2022-11-20T07:43:41.764Z,2.10
2022-11-20T07:45:04.182Z,2.10
2022-11-20T07:46:26.243Z,2.10
2022-11-20T07:47:48.844Z,2.10
2022-11-20T07:49:10.901Z,2.10
2022-11-20T07:50:32.988Z,2.20
2022-11-20T07:51:56.105Z,2.20
2022-11-20T07:53:22.673Z,2.20
2022-11-20T07:54:44.806Z,2.20
2022-11-20T07:56:07.110Z,2.20
2022-11-20T07:57:29.251Z,2.20
2022-11-20T07:58:51.293Z,2.20
2022-11-20T08:00:14.281Z,2.20
2022-11-20T08:01:36.347Z,2.20
2022-11-20T08:02:58.482Z,2.20
2022-11-20T08:04:20.579Z,2.20
2022-11-20T08:05:42.643Z,2.20
2022-11-20T08:07:04.814Z,2.20
2022-11-20T08:08:27.044Z,2.20
2022-11-20T08:09:49.111Z,2.20
2022-11-20T08:11:29.978Z,2.30
2022-11-20T08:13:12.596Z,2.40
2022-11-20T08:14:34.709Z,2.40
2022-11-20T08:15:56.799Z,2.60
2022-11-20T08:17:18.915Z,2.70
2022-11-20T08:18:40.988Z,2.70
2022-11-20T08:20:03.127Z,2.80
2022-11-20T08:21:25.249Z,2.90
2022-11-20T08:22:47.366Z,3.00
2022-11-20T08:24:10.114Z,3.00
2022-11-20T08:25:33.510Z,3.00
2022-11-20T08:26:59.042Z,3.10
2022-11-20T08:28:22.464Z,3.10
2022-11-20T08:29:44.838Z,3.00
2022-11-20T08:31:07.025Z,3.10
2022-11-20T08:32:29.096Z,3.10
2022-11-20T08:33:51.342Z,3.00
2022-11-20T08:35:13.468Z,3.00
2022-11-20T08:36:35.964Z,3.00
2022-11-20T08:37:58.107Z,3.00
2022-11-20T08:39:20.651Z,3.00
2022-11-20T08:41:02.890Z,3.00
2022-11-20T08:42:24.910Z,3.00
2022-11-20T08:43:47.115Z,3.00
2022-11-20T08:45:09.524Z,3.10
2022-11-20T08:46:40.272Z,3.10
2022-11-20T08:48:03.642Z,3.20
2022-11-20T08:49:25.735Z,3.30
2022-11-20T08:50:47.806Z,3.30
2022-11-20T08:52:09.855Z,3.40
2022-11-20T08:53:31.938Z,3.50
2022-11-20T08:54:54.030Z,3.50
2022-11-20T08:56:16.607Z,3.60
2022-11-20T08:57:39.872Z,3.70
2022-11-20T08:59:20.542Z,3.80
2022-11-20T09:00:44.770Z,3.80
2022-11-20T09:02:06.832Z,3.90
2022-11-20T09:03:32.892Z,4.00
2022-11-20T09:04:55.142Z,4.10
2022-11-20T09:06:18.059Z,4.10
2022-11-20T09:07:41.241Z,4.20
2022-11-20T09:09:06.679Z,4.30
2022-11-20T09:10:29.433Z,4.40
2022-11-20T09:11:51.529Z,4.40
2022-11-20T09:13:13.634Z,4.50
2022-11-20T09:14:35.727Z,4.70
2022-11-20T09:16:00.037Z,4.90
2022-11-20T09:17:22.086Z,5.00
2022-11-20T09:18:44.152Z,5.20
2022-11-20T09:20:06.626Z,5.20
2022-11-20T09:21:28.737Z,5.30
2022-11-20T09:22:51.167Z,5.40
2022-11-20T09:24:13.249Z,5.40
2022-11-20T09:25:35.337Z,5.30
2022-11-20T09:26:57.492Z,5.30
2022-11-20T09:28:19.810Z,5.20
2022-11-20T09:29:41.838Z,5.10
2022-11-20T09:31:22.730Z,5.10
2022-11-20T09:32:44.876Z,5.10
2022-11-20T09:34:07.067Z,5.00
2022-11-20T09:35:29.113Z,5.00
2022-11-20T09:36:51.173Z,4.90
2022-11-20T09:38:15.031Z,4.90
2022-11-20T09:39:39.732Z,4.90
2022-11-20T09:41:07.029Z,4.90
2022-11-20T09:42:48.351Z,4.80
2022-11-20T09:45:00.896Z,4.80
2022-11-20T09:46:48.395Z,4.80
2022-11-20T09:48:19.000Z,4.80
2022-11-20T09:50:05.134Z,4.90
2022-11-20T09:51:54.165Z,4.90
2022-11-20T09:54:00.827Z,4.90
2022-11-20T09:55:23.123Z,4.80
2022-11-20T09:56:54.586Z,4.90
2022-11-20T09:58:41.548Z,4.80
2022-11-20T10:00:06.567Z,4.80
2022-11-20T10:01:33.725Z,4.70
2022-11-20T10:03:20.554Z,4.80
2022-11-20T10:04:52.380Z,4.90
2022-11-20T10:06:18.494Z,4.90
2022-11-20T10:07:47.113Z,5.00
2022-11-20T10:09:12.270Z,5.10
2022-11-20T10:10:48.308Z,5.20
2022-11-20T10:12:28.031Z,5.30
2022-11-20T10:14:17.320Z,5.40
2022-11-20T10:15:45.325Z,5.50
2022-11-20T10:17:31.242Z,5.50
2022-11-20T10:19:08.134Z,5.50
2022-11-20T10:20:48.503Z,5.70
2022-11-20T10:22:10.517Z,6.20
2022-11-20T10:24:03.670Z,6.80
2022-11-20T10:25:34.020Z,7.50
2022-11-20T10:26:58.826Z,7.80
2022-11-20T10:28:29.792Z,7.90
2022-11-20T10:30:03.570Z,7.90
2022-11-20T10:31:36.148Z,7.80
2022-11-20T10:33:23.614Z,7.60
2022-11-20T10:34:54.704Z,7.10
2022-11-20T10:36:27.272Z,6.80
2022-11-20T10:38:32.608Z,6.60
2022-11-20T10:40:15.952Z,6.30
2022-11-20T10:41:42.882Z,5.90
2022-11-20T10:43:14.781Z,5.60
2022-11-20T10:44:56.809Z,5.60
2022-11-20T10:46:24.281Z,5.50
2022-11-20T10:47:46.330Z,5.30
2022-11-20T10:49:15.292Z,5.30
2022-11-20T10:50:55.862Z,5.20
2022-11-20T10:52:36.773Z,5.10
2022-11-20T10:54:06.967Z,5.10
2022-11-20T10:56:04.955Z,5.20
2022-11-20T10:58:00.920Z,5.20
2022-11-20T10:59:33.780Z,5.30
2022-11-20T11:01:28.448Z,5.40
2022-11-20T11:02:54.174Z,5.70
2022-11-20T11:04:25.340Z,6.20
2022-11-20T11:05:57.704Z,6.60
2022-11-20T11:07:28.596Z,6.80
2022-11-20T11:08:54.227Z,6.90
2022-11-20T11:10:22.168Z,6.70
2022-11-20T11:11:44.709Z,6.50
2022-11-20T11:13:06.834Z,6.30
2022-11-20T11:14:29.026Z,6.20
2022-11-20T11:15:51.749Z,6.10
2022-11-20T11:17:29.370Z,6.10
2022-11-20T11:18:52.141Z,6.10
2022-11-20T11:20:19.643Z,6.00
2022-11-20T11:22:06.786Z,6.00
2022-11-20T11:23:43.047Z,6.10
2022-11-20T11:25:05.307Z,6.00
2022-11-20T11:26:28.163Z,6.00
2022-11-20T11:27:51.590Z,5.90
2022-11-20T11:29:19.084Z,5.70
2022-11-20T11:30:45.611Z,5.60
2022-11-20T11:32:12.098Z,5.50
2022-11-20T11:33:37.078Z,5.50
2022-11-20T11:35:07.650Z,5.50
2022-11-20T11:36:29.883Z,5.40
2022-11-20T11:37:55.059Z,5.30
2022-11-20T11:39:20.087Z,5.20
2022-11-20T11:40:43.157Z,5.10
2022-11-20T11:42:05.565Z,4.90
2022-11-20T11:43:50.564Z,4.70
2022-11-20T11:45:18.232Z,4.50
2022-11-20T11:46:44.963Z,4.40
2022-11-20T11:48:10.155Z,4.30
2022-11-20T11:49:32.302Z,4.30
2022-11-20T11:50:54.903Z,4.20
2022-11-20T11:52:18.310Z,4.10
2022-11-20T11:53:43.626Z,4.10
2022-11-20T11:55:11.937Z,4.00
2022-11-20T11:56:34.605Z,4.00
2022-11-20T11:58:00.902Z,4.00
2022-11-20T11:59:42.994Z,4.10
2022-11-20T12:01:33.789Z,4.10
2022-11-20T12:02:58.833Z,4.10
2022-11-20T12:04:36.114Z,4.10
2022-11-20T12:06:06.582Z,4.10
2022-11-20T12:07:47.387Z,4.10
2022-11-20T12:09:12.722Z,4.10
2022-11-20T12:10:35.820Z,4.10
2022-11-20T12:12:11.074Z,4.00
2022-11-20T12:13:54.910Z,4.10
2022-11-20T12:15:31.508Z,4.10
2022-11-20T12:16:55.020Z,4.10
2022-11-20T12:18:21.955Z,4.10
2022-11-20T12:19:44.267Z,4.20
2022-11-20T12:21:23.675Z,4.40
2022-11-20T12:23:05.848Z,4.50
2022-11-20T12:24:43.080Z,4.60
2022-11-20T12:26:16.994Z,4.60
2022-11-20T12:27:57.419Z,4.40
2022-11-20T12:29:19.418Z,4.20
2022-11-20T12:31:09.202Z,4.20
2022-11-20T12:32:52.468Z,4.20
2022-11-20T12:34:28.845Z,4.30
2022-11-20T12:36:14.282Z,4.50
2022-11-20T12:38:13.423Z,4.70
2022-11-20T12:39:40.828Z,5.10
2022-11-20T12:41:02.870Z,5.30
2022-11-20T12:43:05.968Z,5.30
2022-11-20T12:45:08.263Z,5.00
2022-11-20T12:46:48.926Z,4.80
2022-11-20T12:48:21.899Z,4.50
2022-11-20T12:50:01.904Z,4.30
2022-11-20T12:51:39.160Z,4.10
2022-11-20T12:53:11.660Z,4.00
2022-11-20T12:55:00.982Z,3.90
2022-11-20T12:56:34.791Z,3.80
2022-11-20T12:58:21.331Z,3.70
2022-11-20T13:00:11.798Z,3.60
2022-11-20T13:01:54.932Z,3.50
2022-11-20T13:03:40.361Z,3.50
2022-11-20T13:05:20.341Z,3.50
2022-11-20T13:06:43.709Z,3.40
2022-11-20T13:08:15.684Z,3.40
2022-11-20T13:09:44.705Z,3.40
2022-11-20T13:11:21.718Z,3.40
2022-11-20T13:12:53.797Z,3.40
2022-11-20T13:14:22.178Z,3.40
2022-11-20T13:15:55.406Z,3.30
2022-11-20T13:17:22.636Z,3.20
2022-11-20T13:18:46.222Z,3.20
2022-11-20T13:20:15.772Z,3.20
2022-11-20T13:21:47.483Z,3.10
2022-11-20T13:23:09.676Z,3.10
2022-11-20T13:24:33.330Z,3.00
2022-11-20T13:26:20.013Z,3.00
2022-11-20T13:27:49.406Z,2.90
2022-11-20T13:29:19.701Z,2.80
2022-11-20T13:30:56.207Z,2.70
2022-11-20T13:32:21.121Z,2.70
2022-11-20T13:33:46.373Z,2.70
2022-11-20T13:35:10.274Z,2.70
2022-11-20T13:36:33.436Z,2.60
2022-11-20T13:38:04.860Z,2.60
2022-11-20T13:39:35.668Z,2.60
2022-11-20T13:41:24.643Z,2.50
2022-11-20T13:42:56.834Z,2.60
2022-11-20T13:44:42.898Z,2.50
2022-11-20T13:46:07.428Z,2.50
2022-11-20T13:47:30.456Z,2.50
2022-11-20T13:48:54.661Z,2.50
2022-11-20T13:50:16.924Z,2.50
2022-11-20T13:51:51.683Z,2.50
2022-11-20T13:53:16.828Z,2.50
2022-11-20T13:55:11.641Z,2.50
2022-11-20T13:57:05.753Z,2.50
2022-11-20T13:58:45.721Z,2.50
2022-11-20T14:00:23.996Z,2.50
2022-11-20T14:01:47.156Z,2.50
2022-11-20T14:03:51.101Z,2.50
2022-11-20T14:05:23.332Z,2.50
2022-11-20T14:06:47.912Z,2.50
2022-11-20T14:08:18.558Z,2.50
2022-11-20T14:09:51.775Z,2.50
2022-11-20T14:11:20.112Z,2.60
2022-11-20T14:12:42.234Z,2.60
2022-11-20T14:14:14.658Z,2.60
2022-11-20T14:15:41.846Z,2.60
2022-11-20T14:17:32.487Z,2.70
2022-11-20T14:18:55.884Z,2.70
2022-11-20T14:20:23.973Z,2.70
2022-11-20T14:21:49.496Z,2.70
2022-11-20T14:23:12.590Z,2.70
2022-11-20T14:24:34.955Z,2.70
2022-11-20T14:25:57.271Z,2.60
2022-11-20T14:27:21.691Z,2.60
2022-11-20T14:28:43.782Z,2.50
2022-11-20T14:30:06.694Z,2.50
2022-11-20T14:31:29.456Z,2.40
2022-11-20T14:32:53.933Z,2.30
2022-11-20T14:34:25.711Z,2.30
2022-11-20T14:35:56.136Z,2.20
2022-11-20T14:37:25.060Z,2.20
2022-11-20T14:38:47.970Z,2.10
2022-11-20T14:40:31.264Z,2.10
2022-11-20T14:41:54.518Z,2.10
2022-11-20T14:43:20.635Z,2.00
2022-11-20T14:44:43.844Z,2.00
2022-11-20T14:46:10.743Z,2.00
2022-11-20T14:47:33.885Z,1.90
2022-11-20T14:48:58.259Z,1.90
2022-11-20T14:50:28.720Z,1.90
2022-11-20T14:52:10.680Z,1.90
2022-11-20T14:53:32.810Z,1.80
2022-11-20T14:55:02.182Z,1.80
2022-11-20T14:56:25.268Z,1.80
2022-11-20T14:57:56.047Z,1.80
2022-11-20T14:59:25.215Z,1.80
2022-11-20T15:00:59.695Z,1.80
2022-11-20T15:02:21.727Z,1.80
2022-11-20T15:03:43.800Z,1.80
2022-11-20T15:05:06.253Z,1.70
2022-11-20T15:06:28.566Z,1.70
2022-11-20T15:08:12.227Z,1.70
2022-11-20T15:09:34.609Z,1.60
2022-11-20T15:10:57.214Z,1.60
2022-11-20T15:12:19.563Z,1.50
2022-11-20T15:13:41.810Z,1.50
2022-11-20T15:15:06.157Z,1.40
2022-11-20T15:16:28.848Z,1.40
2022-11-20T15:17:51.035Z,1.30
2022-11-20T15:19:27.165Z,1.30
2022-11-20T15:20:50.022Z,1.20
2022-11-20T15:22:19.996Z,1.20
2022-11-20T15:23:42.466Z,1.20
2022-11-20T15:25:16.302Z,1.10
2022-11-20T15:26:40.971Z,1.10
2022-11-20T15:28:03.048Z,1.00
2022-11-20T15:29:25.334Z,1.00
2022-11-20T15:30:49.137Z,0.90
2022-11-20T15:32:13.625Z,0.90
2022-11-20T15:33:36.018Z,0.90
2022-11-20T15:34:58.113Z,0.90
2022-11-20T15:36:20.153Z,0.80
2022-11-20T15:37:42.794Z,0.80
2022-11-20T15:39:05.215Z,0.80
2022-11-20T15:40:27.296Z,0.70
2022-11-20T15:41:49.357Z,0.70
2022-11-20T15:43:13.685Z,0.70
2022-11-20T15:44:36.038Z,0.70
2022-11-20T15:46:05.277Z,0.70
2022-11-20T15:47:30.886Z,0.60
2022-11-20T15:48:56.283Z,0.60
2022-11-20T15:50:18.818Z,0.50
2022-11-20T15:51:44.352Z,0.50
2022-11-20T15:53:06.513Z,0.50
2022-11-20T15:54:28.647Z,0.50
2022-11-20T15:55:50.957Z,0.40
2022-11-20T15:57:13.916Z,0.40
2022-11-20T15:58:35.925Z,0.40
2022-11-20T15:59:58.704Z,0.40
2022-11-20T16:01:23.046Z,0.40
2022-11-20T16:02:45.188Z,0.40
2022-11-20T16:04:14.976Z,0.40
2022-11-20T16:05:37.093Z,0.40
2022-11-20T16:06:59.192Z,0.40
2022-11-20T16:08:21.318Z,0.30
2022-11-20T16:09:43.415Z,0.30
2022-11-20T16:11:05.692Z,0.30
2022-11-20T16:12:46.747Z,0.30
2022-11-20T16:14:30.265Z,0.30
2022-11-20T16:15:56.762Z,0.30
2022-11-20T16:17:38.721Z,0.30
2022-11-20T16:19:01.345Z,0.20
2022-11-20T16:20:23.413Z,0.20
2022-11-20T16:21:45.634Z,0.10
2022-11-20T16:23:08.370Z,0.10
2022-11-20T16:24:31.090Z,0.10
2022-11-20T16:25:53.294Z,0.10
2022-11-20T16:27:15.356Z,0.10
2022-11-20T16:28:37.443Z,0.10
2022-11-20T16:29:59.515Z,0.00
2022-11-20T16:31:21.959Z,0.00
2022-11-20T16:32:44.083Z,0.10
2022-11-20T16:34:11.796Z,0.10
2022-11-20T16:35:34.498Z,0.20
2022-11-20T16:36:56.656Z,0.20
2022-11-20T16:38:18.731Z,0.20
2022-11-20T16:39:40.823Z,0.20
2022-11-20T16:41:03.502Z,0.20
2022-11-20T16:42:25.739Z,0.20
2022-11-20T16:43:50.518Z,0.20
2022-11-20T16:45:12.793Z,0.20
2022-11-20T16:46:35.146Z,0.20
2022-11-20T16:47:57.206Z,0.20
2022-11-20T16:49:19.463Z,0.20
2022-11-20T16:50:52.910Z,0.20
2022-11-20T16:52:14.924Z,0.20
2022-11-20T16:53:37.709Z,0.30
2022-11-20T16:54:59.930Z,0.20
2022-11-20T16:56:24.381Z,0.20
2022-11-20T16:57:46.449Z,0.20
2022-11-20T16:59:08.521Z,0.20
2022-11-20T17:00:30.751Z,0.20
2022-11-20T17:01:52.885Z,0.30
2022-11-20T17:03:15.153Z,0.30
2022-11-20T17:04:37.781Z,0.30
2022-11-20T17:05:59.846Z,0.30
2022-11-20T17:07:22.086Z,0.30
2022-11-20T17:08:45.386Z,0.20
2022-11-20T17:10:07.756Z,0.20
2022-11-20T17:11:29.871Z,0.10
2022-11-20T17:12:52.240Z,0.10
2022-11-20T17:14:14.334Z,0.10
2022-11-20T17:15:36.434Z,0.00
2022-11-20T17:16:58.548Z,0.00
2022-11-20T17:18:20.558Z,0.00
2022-11-20T17:19:42.656Z,0.00
2022-11-20T17:21:05.764Z,-0.10
2022-11-20T17:22:27.841Z,-0.20
2022-11-20T17:23:49.991Z,-0.20
2022-11-20T17:25:12.041Z,-0.20
2022-11-20T17:26:35.140Z,-0.30
2022-11-20T17:27:57.194Z,-0.30
2022-11-20T17:29:24.015Z,-0.40
2022-11-20T17:30:46.119Z,-0.40
2022-11-20T17:32:08.162Z,-0.40
2022-11-20T17:33:30.889Z,-0.50
2022-11-20T17:34:52.991Z,-0.50
2022-11-20T17:36:17.546Z,-0.50
2022-11-20T17:37:39.625Z,-0.50
2022-11-20T17:39:01.720Z,-0.60
2022-11-20T17:40:27.373Z,-0.60
2022-11-20T17:42:09.888Z,-0.50
2022-11-20T17:43:35.745Z,-0.60
2022-11-20T17:44:58.869Z,-0.60
2022-11-20T17:46:23.930Z,-0.60
2022-11-20T17:47:46.589Z,-0.60
2022-11-20T17:49:08.872Z,-0.60
2022-11-20T17:50:31.131Z,-0.60
2022-11-20T17:51:53.210Z,-0.60
2022-11-20T17:53:15.318Z,-0.70
2022-11-20T17:54:37.405Z,-0.60
2022-11-20T17:56:18.476Z,-0.60
2022-11-20T17:57:52.434Z,-0.60
2022-11-20T17:59:14.577Z,-0.50
2022-11-20T18:00:36.664Z,-0.50
2022-11-20T18:02:03.439Z,-0.50
2022-11-20T18:03:25.972Z,-0.50
2022-11-20T18:04:48.061Z,-0.60
2022-11-20T18:06:18.946Z,-0.60
2022-11-20T18:07:41.974Z,-0.60
2022-11-20T18:09:05.446Z,-0.70
2022-11-20T18:10:30.222Z,-0.70
2022-11-20T18:11:52.389Z,-0.70
2022-11-20T18:13:14.448Z,-0.70
2022-11-20T18:14:36.711Z,-0.80
2022-11-20T18:16:07.255Z,-0.80
2022-11-20T18:17:29.366Z,-0.80
2022-11-20T18:18:55.351Z,-0.80
2022-11-20T18:20:38.235Z,-0.80
2022-11-20T18:22:01.636Z,-0.80
2022-11-20T18:23:23.964Z,-0.80
2022-11-20T18:24:46.210Z,-0.80
2022-11-20T18:26:08.299Z,-0.90
2022-11-20T18:27:30.366Z,-0.90
2022-11-20T18:28:53.322Z,-0.90
2022-11-20T18:30:16.527Z,-0.90
2022-11-20T18:31:38.753Z,-0.90
2022-11-20T18:33:01.019Z,-0.90
2022-11-20T18:34:24.035Z,-0.90
2022-11-20T18:35:46.215Z,-0.90
2022-11-20T18:37:09.785Z,-0.90
2022-11-20T18:38:32.017Z,-0.90
2022-11-20T18:39:54.121Z,-0.90
2022-11-20T18:41:37.392Z,-0.90
2022-11-20T18:43:18.350Z,-0.90
2022-11-20T18:44:53.768Z,-0.90
2022-11-20T18:46:15.862Z,-0.90
2022-11-20T18:47:40.008Z,-0.90
2022-11-20T18:49:02.135Z,-0.90
2022-11-20T18:50:24.378Z,-0.90
2022-11-20T18:51:46.511Z,-0.90
2022-11-20T18:53:08.673Z,-0.90
2022-11-20T18:54:31.019Z,-0.80
2022-11-20T18:55:53.090Z,-0.90
2022-11-20T18:57:17.814Z,-0.80
2022-11-20T18:58:41.129Z,-0.80
2022-11-20T19:00:09.306Z,-0.80
2022-11-20T19:01:32.201Z,-0.70
2022-11-20T19:02:54.666Z,-0.70
2022-11-20T19:04:18.335Z,-0.70